sensor_id;sensor_type;location;lat;lon;timestamp;P1;durP1;ratioP1;P2;durP2;ratioP2
66628;SDS011;53532;53.084;6.352;2022-10-31T00:00:47;35.75;;;20.60;;
66628;SDS011;53532;53.084;6.352;2022-10-31T00:03:15;30.75;;;20.38;;
66628;SDS011;53532;53.084;6.352;2022-10-31T00:05:41;28.13;;;18.48;;
66628;SDS011;53532;53.084;6.352;2022-10-31T00:08:08;26.40;;;18.63;;
66628;SDS011;53532;53.084;6.352;2022-10-31T00:10:36;30.88;;;20.55;;
66628;SDS011;53532;53.084;6.352;2022-10-31T00:13:02;28.15;;;20.58;;
66628;SDS011;53532;53.084;6.352;2022-10-31T00:15:28;34.05;;;21.30;;
66628;SDS011;53532;53.084;6.352;2022-10-31T00:17:54;34.05;;;21.52;;
66628;SDS011;53532;53.084;6.352;2022-10-31T00:20:21;36.80;;;22.20;;
66628;SDS011;53532;53.084;6.352;2022-10-31T00:22:47;38.03;;;23.13;;
66628;SDS011;53532;53.084;6.352;2022-10-31T00:25:12;42.25;;;24.05;;
66628;SDS011;53532;53.084;6.352;2022-10-31T00:27:38;38.40;;;23.40;;
66628;SDS011;53532;53.084;6.352;2022-10-31T00:30:04;40.90;;;24.25;;
66628;SDS011;53532;53.084;6.352;2022-10-31T00:32:31;37.28;;;23.02;;
66628;SDS011;53532;53.084;6.352;2022-10-31T00:34:56;40.83;;;22.75;;
66628;SDS011;53532;53.084;6.352;2022-10-31T00:37:23;32.78;;;20.65;;
66628;SDS011;53532;53.084;6.352;2022-10-31T00:39:49;37.20;;;21.70;;
66628;SDS011;53532;53.084;6.352;2022-10-31T00:42:15;35.33;;;21.08;;
66628;SDS011;53532;53.084;6.352;2022-10-31T00:44:41;33.22;;;20.02;;
66628;SDS011;53532;53.084;6.352;2022-10-31T00:47:07;34.35;;;21.83;;
66628;SDS011;53532;53.084;6.352;2022-10-31T00:49:32;39.92;;;22.85;;
66628;SDS011;53532;53.084;6.352;2022-10-31T00:51:59;39.28;;;23.10;;
66628;SDS011;53532;53.084;6.352;2022-10-31T00:54:26;45.45;;;24.25;;
66628;SDS011;53532;53.084;6.352;2022-10-31T00:56:52;48.08;;;24.92;;
66628;SDS011;53532;53.084;6.352;2022-10-31T00:59:18;44.65;;;23.98;;
66628;SDS011;53532;53.084;6.352;2022-10-31T01:01:43;46.45;;;23.55;;
66628;SDS011;53532;53.084;6.352;2022-10-31T01:04:09;39.13;;;22.63;;
66628;SDS011;53532;53.084;6.352;2022-10-31T01:06:35;39.85;;;21.30;;
66628;SDS011;53532;53.084;6.352;2022-10-31T01:09:00;36.10;;;21.08;;
66628;SDS011;53532;53.084;6.352;2022-10-31T01:11:28;35.72;;;20.80;;
66628;SDS011;53532;53.084;6.352;2022-10-31T01:13:54;38.97;;;21.10;;
66628;SDS011;53532;53.084;6.352;2022-10-31T01:16:21;31.95;;;19.92;;
66628;SDS011;53532;53.084;6.352;2022-10-31T01:18:48;31.17;;;19.15;;
66628;SDS011;53532;53.084;6.352;2022-10-31T01:21:15;35.05;;;19.63;;
66628;SDS011;53532;53.084;6.352;2022-10-31T01:23:41;35.75;;;19.10;;
66628;SDS011;53532;53.084;6.352;2022-10-31T01:26:08;33.92;;;19.40;;
66628;SDS011;53532;53.084;6.352;2022-10-31T01:28:38;33.28;;;19.40;;
66628;SDS011;53532;53.084;6.352;2022-10-31T01:31:08;32.47;;;19.67;;
66628;SDS011;53532;53.084;6.352;2022-10-31T01:33:34;32.33;;;19.05;;
66628;SDS011;53532;53.084;6.352;2022-10-31T01:36:01;31.67;;;19.52;;
66628;SDS011;53532;53.084;6.352;2022-10-31T01:38:36;34.50;;;19.98;;
66628;SDS011;53532;53.084;6.352;2022-10-31T01:41:01;30.33;;;19.48;;
66628;SDS011;53532;53.084;6.352;2022-10-31T01:43:42;36.25;;;20.00;;
66628;SDS011;53532;53.084;6.352;2022-10-31T01:46:13;34.22;;;19.63;;
66628;SDS011;53532;53.084;6.352;2022-10-31T01:48:42;36.17;;;21.20;;
66628;SDS011;53532;53.084;6.352;2022-10-31T01:51:08;38.15;;;21.17;;
66628;SDS011;53532;53.084;6.352;2022-10-31T01:53:37;45.40;;;22.65;;
66628;SDS011;53532;53.084;6.352;2022-10-31T01:56:05;33.50;;;20.50;;
66628;SDS011;53532;53.084;6.352;2022-10-31T01:58:32;41.63;;;21.70;;
66628;SDS011;53532;53.084;6.352;2022-10-31T02:01:00;36.47;;;21.33;;
66628;SDS011;53532;53.084;6.352;2022-10-31T02:03:27;30.35;;;19.30;;
66628;SDS011;53532;53.084;6.352;2022-10-31T02:05:54;30.10;;;18.48;;
66628;SDS011;53532;53.084;6.352;2022-10-31T02:08:23;30.65;;;19.42;;
66628;SDS011;53532;53.084;6.352;2022-10-31T02:10:51;31.00;;;19.20;;
66628;SDS011;53532;53.084;6.352;2022-10-31T02:13:17;36.63;;;19.50;;
66628;SDS011;53532;53.084;6.352;2022-10-31T02:15:45;30.27;;;19.00;;
66628;SDS011;53532;53.084;6.352;2022-10-31T02:18:15;37.45;;;19.60;;
66628;SDS011;53532;53.084;6.352;2022-10-31T02:20:45;31.42;;;19.35;;
66628;SDS011;53532;53.084;6.352;2022-10-31T02:23:33;35.13;;;19.27;;
66628;SDS011;53532;53.084;6.352;2022-10-31T02:26:25;30.15;;;18.95;;
66628;SDS011;53532;53.084;6.352;2022-10-31T02:29:25;29.25;;;18.67;;
66628;SDS011;53532;53.084;6.352;2022-10-31T02:32:14;29.08;;;18.48;;
66628;SDS011;53532;53.084;6.352;2022-10-31T02:34:47;30.25;;;19.20;;
66628;SDS011;53532;53.084;6.352;2022-10-31T02:37:21;30.05;;;19.05;;
66628;SDS011;53532;53.084;6.352;2022-10-31T02:39:52;34.35;;;20.80;;
66628;SDS011;53532;53.084;6.352;2022-10-31T02:42:22;37.63;;;20.13;;
66628;SDS011;53532;53.084;6.352;2022-10-31T02:44:51;44.58;;;24.23;;
66628;SDS011;53532;53.084;6.352;2022-10-31T02:47:22;39.28;;;22.33;;
66628;SDS011;53532;53.084;6.352;2022-10-31T02:49:53;38.37;;;22.63;;
66628;SDS011;53532;53.084;6.352;2022-10-31T02:52:21;35.72;;;19.83;;
66628;SDS011;53532;53.084;6.352;2022-10-31T02:54:49;36.67;;;19.35;;
66628;SDS011;53532;53.084;6.352;2022-10-31T02:57:16;31.33;;;18.98;;
66628;SDS011;53532;53.084;6.352;2022-10-31T02:59:44;40.65;;;21.77;;
66628;SDS011;53532;53.084;6.352;2022-10-31T03:02:15;39.80;;;21.85;;
66628;SDS011;53532;53.084;6.352;2022-10-31T03:04:59;35.38;;;20.77;;
66628;SDS011;53532;53.084;6.352;2022-10-31T03:07:30;32.60;;;19.13;;
66628;SDS011;53532;53.084;6.352;2022-10-31T03:10:04;60.65;;;22.67;;
66628;SDS011;53532;53.084;6.352;2022-10-31T03:12:34;28.40;;;17.70;;
66628;SDS011;53532;53.084;6.352;2022-10-31T03:15:03;45.22;;;21.83;;
66628;SDS011;53532;53.084;6.352;2022-10-31T03:17:33;47.45;;;22.98;;
66628;SDS011;53532;53.084;6.352;2022-10-31T03:20:01;45.58;;;24.63;;
66628;SDS011;53532;53.084;6.352;2022-10-31T03:22:29;45.28;;;24.65;;
66628;SDS011;53532;53.084;6.352;2022-10-31T03:24:58;60.28;;;25.13;;
66628;SDS011;53532;53.084;6.352;2022-10-31T03:27:26;46.83;;;23.90;;
66628;SDS011;53532;53.084;6.352;2022-10-31T03:29:54;46.13;;;23.23;;
66628;SDS011;53532;53.084;6.352;2022-10-31T03:32:22;50.80;;;24.20;;
66628;SDS011;53532;53.084;6.352;2022-10-31T03:34:49;43.00;;;24.65;;
66628;SDS011;53532;53.084;6.352;2022-10-31T03:37:20;43.72;;;24.50;;
66628;SDS011;53532;53.084;6.352;2022-10-31T03:39:48;46.72;;;25.92;;
66628;SDS011;53532;53.084;6.352;2022-10-31T03:42:15;48.58;;;25.35;;
66628;SDS011;53532;53.084;6.352;2022-10-31T03:44:42;52.70;;;27.52;;
66628;SDS011;53532;53.084;6.352;2022-10-31T03:47:10;53.70;;;27.02;;
66628;SDS011;53532;53.084;6.352;2022-10-31T03:49:36;52.80;;;26.88;;
66628;SDS011;53532;53.084;6.352;2022-10-31T03:52:04;50.28;;;27.75;;
66628;SDS011;53532;53.084;6.352;2022-10-31T03:54:36;54.90;;;29.77;;
66628;SDS011;53532;53.084;6.352;2022-10-31T03:57:05;49.33;;;27.40;;
66628;SDS011;53532;53.084;6.352;2022-10-31T03:59:34;61.92;;;29.40;;
66628;SDS011;53532;53.084;6.352;2022-10-31T04:02:03;51.95;;;28.70;;
66628;SDS011;53532;53.084;6.352;2022-10-31T04:04:32;47.25;;;25.73;;
66628;SDS011;53532;53.084;6.352;2022-10-31T04:06:59;49.85;;;26.63;;
66628;SDS011;53532;53.084;6.352;2022-10-31T04:09:26;47.13;;;26.05;;
66628;SDS011;53532;53.084;6.352;2022-10-31T04:11:55;49.80;;;27.30;;
66628;SDS011;53532;53.084;6.352;2022-10-31T04:14:23;58.15;;;29.77;;
66628;SDS011;53532;53.084;6.352;2022-10-31T04:16:51;44.53;;;27.60;;
66628;SDS011;53532;53.084;6.352;2022-10-31T04:19:17;64.75;;;29.70;;
66628;SDS011;53532;53.084;6.352;2022-10-31T04:21:43;63.38;;;31.55;;
66628;SDS011;53532;53.084;6.352;2022-10-31T04:24:09;54.35;;;29.92;;
66628;SDS011;53532;53.084;6.352;2022-10-31T04:26:36;48.90;;;26.42;;
66628;SDS011;53532;53.084;6.352;2022-10-31T04:29:03;49.67;;;23.50;;
66628;SDS011;53532;53.084;6.352;2022-10-31T04:31:29;30.80;;;19.52;;
66628;SDS011;53532;53.084;6.352;2022-10-31T04:33:55;42.28;;;22.65;;
66628;SDS011;53532;53.084;6.352;2022-10-31T04:36:21;35.30;;;19.85;;
66628;SDS011;53532;53.084;6.352;2022-10-31T04:38:48;51.80;;;21.98;;
66628;SDS011;53532;53.084;6.352;2022-10-31T04:41:14;39.05;;;24.23;;
66628;SDS011;53532;53.084;6.352;2022-10-31T04:43:40;69.43;;;23.45;;
66628;SDS011;53532;53.084;6.352;2022-10-31T04:46:08;51.70;;;27.65;;
66628;SDS011;53532;53.084;6.352;2022-10-31T04:48:34;48.33;;;27.10;;
66628;SDS011;53532;53.084;6.352;2022-10-31T04:51:01;48.15;;;27.02;;
66628;SDS011;53532;53.084;6.352;2022-10-31T04:53:27;61.67;;;28.08;;
66628;SDS011;53532;53.084;6.352;2022-10-31T04:55:54;36.83;;;23.50;;
66628;SDS011;53532;53.084;6.352;2022-10-31T04:58:20;44.03;;;24.67;;
66628;SDS011;53532;53.084;6.352;2022-10-31T05:00:46;209.13;;;27.38;;
66628;SDS011;53532;53.084;6.352;2022-10-31T05:03:13;223.13;;;23.23;;
66628;SDS011;53532;53.084;6.352;2022-10-31T05:05:41;261.92;;;26.38;;
66628;SDS011;53532;53.084;6.352;2022-10-31T05:08:07;135.23;;;17.02;;
66628;SDS011;53532;53.084;6.352;2022-10-31T05:10:33;157.77;;;18.05;;
66628;SDS011;53532;53.084;6.352;2022-10-31T05:13:00;199.68;;;22.15;;
66628;SDS011;53532;53.084;6.352;2022-10-31T05:15:27;218.90;;;19.85;;
66628;SDS011;53532;53.084;6.352;2022-10-31T05:17:53;152.98;;;14.68;;
66628;SDS011;53532;53.084;6.352;2022-10-31T05:20:22;153.25;;;14.68;;
66628;SDS011;53532;53.084;6.352;2022-10-31T05:22:49;116.55;;;14.18;;
66628;SDS011;53532;53.084;6.352;2022-10-31T05:25:15;117.47;;;18.67;;
66628;SDS011;53532;53.084;6.352;2022-10-31T05:27:41;98.07;;;16.17;;
66628;SDS011;53532;53.084;6.352;2022-10-31T05:30:09;86.53;;;18.27;;
66628;SDS011;53532;53.084;6.352;2022-10-31T05:32:38;57.85;;;15.05;;
66628;SDS011;53532;53.084;6.352;2022-10-31T05:35:05;49.47;;;16.42;;
66628;SDS011;53532;53.084;6.352;2022-10-31T05:37:34;52.28;;;16.88;;
66628;SDS011;53532;53.084;6.352;2022-10-31T05:40:00;127.25;;;20.40;;
66628;SDS011;53532;53.084;6.352;2022-10-31T05:42:27;95.43;;;19.00;;
66628;SDS011;53532;53.084;6.352;2022-10-31T05:44:53;90.10;;;21.95;;
66628;SDS011;53532;53.084;6.352;2022-10-31T05:47:19;54.67;;;18.20;;
66628;SDS011;53532;53.084;6.352;2022-10-31T05:49:45;65.68;;;19.35;;
66628;SDS011;53532;53.084;6.352;2022-10-31T05:52:11;276.48;;;30.42;;
66628;SDS011;53532;53.084;6.352;2022-10-31T05:54:39;172.68;;;25.83;;
66628;SDS011;53532;53.084;6.352;2022-10-31T05:57:05;108.75;;;28.17;;
66628;SDS011;53532;53.084;6.352;2022-10-31T05:59:31;26.58;;;17.80;;
66628;SDS011;53532;53.084;6.352;2022-10-31T06:01:57;78.85;;;22.10;;
66628;SDS011;53532;53.084;6.352;2022-10-31T06:04:23;111.90;;;24.17;;
66628;SDS011;53532;53.084;6.352;2022-10-31T06:06:49;122.78;;;27.50;;
66628;SDS011;53532;53.084;6.352;2022-10-31T06:09:16;306.83;;;42.35;;
66628;SDS011;53532;53.084;6.352;2022-10-31T06:11:43;53.97;;;19.67;;
66628;SDS011;53532;53.084;6.352;2022-10-31T06:14:09;155.75;;;25.42;;
66628;SDS011;53532;53.084;6.352;2022-10-31T06:16:35;70.57;;;20.95;;
66628;SDS011;53532;53.084;6.352;2022-10-31T06:19:02;52.40;;;22.13;;
66628;SDS011;53532;53.084;6.352;2022-10-31T06:21:28;165.18;;;34.35;;
66628;SDS011;53532;53.084;6.352;2022-10-31T06:23:54;66.78;;;27.15;;
66628;SDS011;53532;53.084;6.352;2022-10-31T06:26:20;72.22;;;25.33;;
66628;SDS011;53532;53.084;6.352;2022-10-31T06:28:48;145.13;;;27.38;;
66628;SDS011;53532;53.084;6.352;2022-10-31T06:31:14;97.43;;;28.10;;
66628;SDS011;53532;53.084;6.352;2022-10-31T06:33:40;51.53;;;21.88;;
66628;SDS011;53532;53.084;6.352;2022-10-31T06:36:07;41.03;;;20.70;;
66628;SDS011;53532;53.084;6.352;2022-10-31T06:38:33;171.43;;;34.67;;
66628;SDS011;53532;53.084;6.352;2022-10-31T06:41:01;191.32;;;30.42;;
66628;SDS011;53532;53.084;6.352;2022-10-31T06:43:28;55.53;;;24.17;;
66628;SDS011;53532;53.084;6.352;2022-10-31T06:45:55;157.88;;;30.42;;
66628;SDS011;53532;53.084;6.352;2022-10-31T06:48:21;123.40;;;26.63;;
66628;SDS011;53532;53.084;6.352;2022-10-31T06:50:47;52.60;;;26.50;;
66628;SDS011;53532;53.084;6.352;2022-10-31T06:53:13;339.25;;;50.42;;
66628;SDS011;53532;53.084;6.352;2022-10-31T06:55:40;152.32;;;28.48;;
66628;SDS011;53532;53.084;6.352;2022-10-31T06:58:06;112.00;;;24.02;;
66628;SDS011;53532;53.084;6.352;2022-10-31T07:00:32;82.03;;;22.60;;
66628;SDS011;53532;53.084;6.352;2022-10-31T07:03:00;44.45;;;19.00;;
66628;SDS011;53532;53.084;6.352;2022-10-31T07:05:27;46.97;;;23.67;;
66628;SDS011;53532;53.084;6.352;2022-10-31T07:07:54;76.35;;;30.88;;
66628;SDS011;53532;53.084;6.352;2022-10-31T07:10:20;56.30;;;27.65;;
66628;SDS011;53532;53.084;6.352;2022-10-31T07:12:47;77.20;;;33.45;;
66628;SDS011;53532;53.084;6.352;2022-10-31T07:15:13;113.68;;;36.65;;
66628;SDS011;53532;53.084;6.352;2022-10-31T07:17:39;94.05;;;33.97;;
66628;SDS011;53532;53.084;6.352;2022-10-31T07:20:07;52.65;;;30.38;;
66628;SDS011;53532;53.084;6.352;2022-10-31T07:22:34;65.63;;;28.80;;
66628;SDS011;53532;53.084;6.352;2022-10-31T07:25:00;62.78;;;31.30;;
66628;SDS011;53532;53.084;6.352;2022-10-31T07:27:26;50.05;;;29.15;;
66628;SDS011;53532;53.084;6.352;2022-10-31T07:29:53;65.45;;;30.02;;
66628;SDS011;53532;53.084;6.352;2022-10-31T07:32:19;105.07;;;33.15;;
66628;SDS011;53532;53.084;6.352;2022-10-31T07:34:45;49.08;;;28.58;;
66628;SDS011;53532;53.084;6.352;2022-10-31T07:37:12;84.57;;;45.25;;
66628;SDS011;53532;53.084;6.352;2022-10-31T07:39:38;77.50;;;44.95;;
66628;SDS011;53532;53.084;6.352;2022-10-31T07:42:04;70.70;;;41.22;;
66628;SDS011;53532;53.084;6.352;2022-10-31T07:44:30;66.35;;;38.83;;
66628;SDS011;53532;53.084;6.352;2022-10-31T07:46:57;74.90;;;37.90;;
66628;SDS011;53532;53.084;6.352;2022-10-31T07:49:23;76.07;;;40.50;;
66628;SDS011;53532;53.084;6.352;2022-10-31T07:51:50;86.20;;;41.58;;
66628;SDS011;53532;53.084;6.352;2022-10-31T07:54:18;84.47;;;42.10;;
66628;SDS011;53532;53.084;6.352;2022-10-31T07:56:44;101.38;;;44.95;;
66628;SDS011;53532;53.084;6.352;2022-10-31T07:59:12;91.22;;;43.55;;
66628;SDS011;53532;53.084;6.352;2022-10-31T08:01:38;94.32;;;46.13;;
66628;SDS011;53532;53.084;6.352;2022-10-31T08:04:04;88.90;;;45.92;;
66628;SDS011;53532;53.084;6.352;2022-10-31T08:06:31;103.05;;;49.42;;
66628;SDS011;53532;53.084;6.352;2022-10-31T08:08:57;113.32;;;50.08;;
66628;SDS011;53532;53.084;6.352;2022-10-31T08:11:24;92.85;;;46.30;;
66628;SDS011;53532;53.084;6.352;2022-10-31T08:13:50;88.75;;;45.13;;
66628;SDS011;53532;53.084;6.352;2022-10-31T08:16:16;100.25;;;45.80;;
66628;SDS011;53532;53.084;6.352;2022-10-31T08:18:43;79.18;;;40.95;;
66628;SDS011;53532;53.084;6.352;2022-10-31T08:21:09;76.93;;;38.70;;
66628;SDS011;53532;53.084;6.352;2022-10-31T08:23:35;84.13;;;41.70;;
66628;SDS011;53532;53.084;6.352;2022-10-31T08:26:01;83.70;;;41.20;;
66628;SDS011;53532;53.084;6.352;2022-10-31T08:28:29;79.80;;;41.10;;
66628;SDS011;53532;53.084;6.352;2022-10-31T08:30:56;73.95;;;39.13;;
66628;SDS011;53532;53.084;6.352;2022-10-31T08:33:23;76.35;;;39.28;;
66628;SDS011;53532;53.084;6.352;2022-10-31T08:35:49;73.82;;;39.85;;
66628;SDS011;53532;53.084;6.352;2022-10-31T08:38:15;74.22;;;36.85;;
66628;SDS011;53532;53.084;6.352;2022-10-31T08:40:42;82.72;;;39.35;;
66628;SDS011;53532;53.084;6.352;2022-10-31T08:43:10;67.65;;;37.35;;
66628;SDS011;53532;53.084;6.352;2022-10-31T08:45:38;68.30;;;38.28;;
66628;SDS011;53532;53.084;6.352;2022-10-31T08:48:05;70.53;;;37.33;;
66628;SDS011;53532;53.084;6.352;2022-10-31T08:50:32;57.28;;;35.33;;
66628;SDS011;53532;53.084;6.352;2022-10-31T08:53:01;60.58;;;35.15;;
66628;SDS011;53532;53.084;6.352;2022-10-31T08:55:27;53.38;;;33.60;;
66628;SDS011;53532;53.084;6.352;2022-10-31T08:57:54;65.15;;;34.05;;
66628;SDS011;53532;53.084;6.352;2022-10-31T09:00:21;55.80;;;34.25;;
66628;SDS011;53532;53.084;6.352;2022-10-31T09:02:48;59.35;;;33.95;;
66628;SDS011;53532;53.084;6.352;2022-10-31T09:05:20;71.47;;;36.08;;
66628;SDS011;53532;53.084;6.352;2022-10-31T09:07:46;55.38;;;33.50;;
66628;SDS011;53532;53.084;6.352;2022-10-31T09:10:12;51.75;;;32.50;;
66628;SDS011;53532;53.084;6.352;2022-10-31T09:12:38;56.30;;;33.00;;
66628;SDS011;53532;53.084;6.352;2022-10-31T09:15:04;53.55;;;32.90;;
66628;SDS011;53532;53.084;6.352;2022-10-31T09:17:31;51.08;;;32.20;;
66628;SDS011;53532;53.084;6.352;2022-10-31T09:19:59;47.08;;;31.08;;
66628;SDS011;53532;53.084;6.352;2022-10-31T09:22:25;41.78;;;30.15;;
66628;SDS011;53532;53.084;6.352;2022-10-31T09:24:51;44.92;;;29.88;;
66628;SDS011;53532;53.084;6.352;2022-10-31T09:27:17;45.92;;;31.60;;
66628;SDS011;53532;53.084;6.352;2022-10-31T09:29:43;42.30;;;29.92;;
66628;SDS011;53532;53.084;6.352;2022-10-31T09:32:09;42.72;;;30.17;;
66628;SDS011;53532;53.084;6.352;2022-10-31T09:34:35;43.58;;;30.98;;
66628;SDS011;53532;53.084;6.352;2022-10-31T09:37:03;44.70;;;30.65;;
66628;SDS011;53532;53.084;6.352;2022-10-31T09:39:29;42.65;;;30.38;;
66628;SDS011;53532;53.084;6.352;2022-10-31T09:41:58;44.67;;;30.90;;
66628;SDS011;53532;53.084;6.352;2022-10-31T09:44:27;41.42;;;30.00;;
66628;SDS011;53532;53.084;6.352;2022-10-31T09:46:57;43.95;;;30.40;;
66628;SDS011;53532;53.084;6.352;2022-10-31T09:49:33;37.63;;;28.75;;
66628;SDS011;53532;53.084;6.352;2022-10-31T09:52:04;40.60;;;29.88;;
66628;SDS011;53532;53.084;6.352;2022-10-31T09:54:34;38.42;;;28.27;;
66628;SDS011;53532;53.084;6.352;2022-10-31T09:57:02;43.17;;;29.35;;
66628;SDS011;53532;53.084;6.352;2022-10-31T09:59:30;36.97;;;28.73;;
66628;SDS011;53532;53.084;6.352;2022-10-31T10:01:58;37.47;;;26.60;;
66628;SDS011;53532;53.084;6.352;2022-10-31T10:04:30;40.00;;;27.70;;
66628;SDS011;53532;53.084;6.352;2022-10-31T10:06:58;33.47;;;25.30;;
66628;SDS011;53532;53.084;6.352;2022-10-31T10:09:26;34.70;;;26.23;;
66628;SDS011;53532;53.084;6.352;2022-10-31T10:11:55;38.15;;;27.05;;
66628;SDS011;53532;53.084;6.352;2022-10-31T10:14:31;34.58;;;25.45;;
66628;SDS011;53532;53.084;6.352;2022-10-31T10:17:03;35.38;;;24.85;;
66628;SDS011;53532;53.084;6.352;2022-10-31T10:19:41;31.33;;;23.60;;
66628;SDS011;53532;53.084;6.352;2022-10-31T10:22:15;28.30;;;22.13;;
66628;SDS011;53532;53.084;6.352;2022-10-31T10:24:51;30.48;;;22.27;;
66628;SDS011;53532;53.084;6.352;2022-10-31T10:27:20;28.23;;;22.08;;
66628;SDS011;53532;53.084;6.352;2022-10-31T10:29:50;31.38;;;21.92;;
66628;SDS011;53532;53.084;6.352;2022-10-31T10:32:19;29.40;;;21.90;;
66628;SDS011;53532;53.084;6.352;2022-10-31T10:34:49;26.45;;;20.80;;
66628;SDS011;53532;53.084;6.352;2022-10-31T10:37:20;28.55;;;21.38;;
66628;SDS011;53532;53.084;6.352;2022-10-31T10:39:48;26.08;;;19.98;;
66628;SDS011;53532;53.084;6.352;2022-10-31T10:42:16;25.67;;;20.35;;
66628;SDS011;53532;53.084;6.352;2022-10-31T10:45:06;28.65;;;21.17;;
66628;SDS011;53532;53.084;6.352;2022-10-31T10:47:56;27.58;;;21.38;;
66628;SDS011;53532;53.084;6.352;2022-10-31T10:50:26;30.58;;;22.48;;
66628;SDS011;53532;53.084;6.352;2022-10-31T10:52:53;27.90;;;20.13;;
66628;SDS011;53532;53.084;6.352;2022-10-31T10:57:54;29.50;;;20.58;;
66628;SDS011;53532;53.084;6.352;2022-10-31T11:00:25;29.38;;;20.20;;
66628;SDS011;53532;53.084;6.352;2022-10-31T11:02:52;27.77;;;19.23;;
66628;SDS011;53532;53.084;6.352;2022-10-31T11:05:22;25.33;;;18.95;;
66628;SDS011;53532;53.084;6.352;2022-10-31T11:07:49;26.73;;;18.85;;
66628;SDS011;53532;53.084;6.352;2022-10-31T11:10:16;26.65;;;19.35;;
66628;SDS011;53532;53.084;6.352;2022-10-31T11:12:43;26.48;;;18.52;;
66628;SDS011;53532;53.084;6.352;2022-10-31T11:15:18;26.40;;;17.75;;
66628;SDS011;53532;53.084;6.352;2022-10-31T11:17:47;25.17;;;17.42;;
66628;SDS011;53532;53.084;6.352;2022-10-31T11:20:25;24.80;;;17.80;;
66628;SDS011;53532;53.084;6.352;2022-10-31T11:23:00;23.98;;;17.17;;
66628;SDS011;53532;53.084;6.352;2022-10-31T11:25:30;26.38;;;18.67;;
66628;SDS011;53532;53.084;6.352;2022-10-31T11:28:03;24.45;;;17.00;;
66628;SDS011;53532;53.084;6.352;2022-10-31T11:30:42;22.60;;;16.75;;
66628;SDS011;53532;53.084;6.352;2022-10-31T11:33:11;21.98;;;16.52;;
66628;SDS011;53532;53.084;6.352;2022-10-31T11:35:42;22.83;;;16.20;;
66628;SDS011;53532;53.084;6.352;2022-10-31T11:38:12;23.55;;;16.38;;
66628;SDS011;53532;53.084;6.352;2022-10-31T11:40:44;26.75;;;18.05;;
66628;SDS011;53532;53.084;6.352;2022-10-31T11:43:17;21.90;;;14.50;;
66628;SDS011;53532;53.084;6.352;2022-10-31T11:45:50;18.63;;;13.40;;
66628;SDS011;53532;53.084;6.352;2022-10-31T11:48:17;19.15;;;13.15;;
66628;SDS011;53532;53.084;6.352;2022-10-31T11:50:47;16.77;;;12.30;;
66628;SDS011;53532;53.084;6.352;2022-10-31T11:53:14;17.15;;;12.82;;
66628;SDS011;53532;53.084;6.352;2022-10-31T11:55:45;16.70;;;12.70;;
66628;SDS011;53532;53.084;6.352;2022-10-31T11:58:21;18.10;;;12.45;;
66628;SDS011;53532;53.084;6.352;2022-10-31T12:00:51;17.55;;;11.82;;
66628;SDS011;53532;53.084;6.352;2022-10-31T12:03:24;16.65;;;11.05;;
66628;SDS011;53532;53.084;6.352;2022-10-31T12:05:55;16.10;;;11.05;;
66628;SDS011;53532;53.084;6.352;2022-10-31T12:08:22;16.30;;;11.57;;
66628;SDS011;53532;53.084;6.352;2022-10-31T12:10:52;15.38;;;10.77;;
66628;SDS011;53532;53.084;6.352;2022-10-31T12:13:28;15.25;;;10.73;;
66628;SDS011;53532;53.084;6.352;2022-10-31T12:16:00;14.45;;;9.43;;
66628;SDS011;53532;53.084;6.352;2022-10-31T12:18:36;14.95;;;9.25;;
66628;SDS011;53532;53.084;6.352;2022-10-31T12:21:19;14.27;;;9.18;;
66628;SDS011;53532;53.084;6.352;2022-10-31T12:23:50;13.20;;;9.43;;
66628;SDS011;53532;53.084;6.352;2022-10-31T12:26:21;13.00;;;8.70;;
66628;SDS011;53532;53.084;6.352;2022-10-31T12:28:54;15.02;;;8.50;;
66628;SDS011;53532;53.084;6.352;2022-10-31T12:31:28;14.25;;;8.43;;
66628;SDS011;53532;53.084;6.352;2022-10-31T12:34:02;16.77;;;8.88;;
66628;SDS011;53532;53.084;6.352;2022-10-31T12:36:36;14.65;;;8.40;;
66628;SDS011;53532;53.084;6.352;2022-10-31T12:39:16;13.45;;;8.07;;
66628;SDS011;53532;53.084;6.352;2022-10-31T12:41:51;14.27;;;8.70;;
66628;SDS011;53532;53.084;6.352;2022-10-31T12:44:25;13.40;;;8.48;;
66628;SDS011;53532;53.084;6.352;2022-10-31T12:47:01;13.98;;;8.00;;
66628;SDS011;53532;53.084;6.352;2022-10-31T12:49:38;12.73;;;6.50;;
66628;SDS011;53532;53.084;6.352;2022-10-31T12:52:17;12.80;;;6.75;;
66628;SDS011;53532;53.084;6.352;2022-10-31T12:54:57;11.20;;;6.93;;
66628;SDS011;53532;53.084;6.352;2022-10-31T12:57:30;14.13;;;6.13;;
66628;SDS011;53532;53.084;6.352;2022-10-31T12:59:59;11.77;;;6.25;;
66628;SDS011;53532;53.084;6.352;2022-10-31T13:02:28;12.50;;;6.38;;
66628;SDS011;53532;53.084;6.352;2022-10-31T13:05:02;13.70;;;7.38;;
66628;SDS011;53532;53.084;6.352;2022-10-31T13:07:29;12.45;;;6.97;;
66628;SDS011;53532;53.084;6.352;2022-10-31T13:09:58;10.93;;;6.13;;
66628;SDS011;53532;53.084;6.352;2022-10-31T13:12:27;9.95;;;5.50;;
66628;SDS011;53532;53.084;6.352;2022-10-31T13:14:56;11.98;;;5.75;;
66628;SDS011;53532;53.084;6.352;2022-10-31T13:17:26;11.48;;;5.65;;
66628;SDS011;53532;53.084;6.352;2022-10-31T13:19:55;11.52;;;5.30;;
66628;SDS011;53532;53.084;6.352;2022-10-31T13:22:25;11.10;;;4.78;;
66628;SDS011;53532;53.084;6.352;2022-10-31T13:24:54;9.63;;;4.30;;
66628;SDS011;53532;53.084;6.352;2022-10-31T13:27:22;13.35;;;4.45;;
66628;SDS011;53532;53.084;6.352;2022-10-31T13:29:53;10.00;;;4.13;;
66628;SDS011;53532;53.084;6.352;2022-10-31T13:32:21;9.60;;;3.95;;
66628;SDS011;53532;53.084;6.352;2022-10-31T13:34:49;12.25;;;4.10;;
66628;SDS011;53532;53.084;6.352;2022-10-31T13:37:20;11.52;;;4.25;;
66628;SDS011;53532;53.084;6.352;2022-10-31T13:39:58;8.85;;;4.00;;
66628;SDS011;53532;53.084;6.352;2022-10-31T13:42:31;11.48;;;4.05;;
66628;SDS011;53532;53.084;6.352;2022-10-31T13:45:07;10.45;;;3.75;;
66628;SDS011;53532;53.084;6.352;2022-10-31T13:47:37;10.18;;;4.28;;
66628;SDS011;53532;53.084;6.352;2022-10-31T13:50:03;9.18;;;4.20;;
66628;SDS011;53532;53.084;6.352;2022-10-31T13:52:31;10.13;;;4.38;;
66628;SDS011;53532;53.084;6.352;2022-10-31T13:54:57;13.00;;;4.35;;
66628;SDS011;53532;53.084;6.352;2022-10-31T13:57:28;11.65;;;4.25;;
66628;SDS011;53532;53.084;6.352;2022-10-31T13:59:56;10.35;;;4.07;;
66628;SDS011;53532;53.084;6.352;2022-10-31T14:02:24;10.18;;;3.88;;
66628;SDS011;53532;53.084;6.352;2022-10-31T14:04:52;8.80;;;3.42;;
66628;SDS011;53532;53.084;6.352;2022-10-31T14:07:20;10.88;;;3.85;;
66628;SDS011;53532;53.084;6.352;2022-10-31T14:09:56;10.02;;;3.40;;
66628;SDS011;53532;53.084;6.352;2022-10-31T14:12:24;12.20;;;3.25;;
66628;SDS011;53532;53.084;6.352;2022-10-31T14:14:51;10.60;;;2.90;;
66628;SDS011;53532;53.084;6.352;2022-10-31T14:17:20;12.85;;;2.78;;
66628;SDS011;53532;53.084;6.352;2022-10-31T14:19:57;7.65;;;2.92;;
66628;SDS011;53532;53.084;6.352;2022-10-31T14:22:28;9.02;;;2.92;;
66628;SDS011;53532;53.084;6.352;2022-10-31T14:24:56;11.80;;;2.85;;
66628;SDS011;53532;53.084;6.352;2022-10-31T14:27:33;8.15;;;2.33;;
66628;SDS011;53532;53.084;6.352;2022-10-31T14:30:08;6.57;;;2.30;;
66628;SDS011;53532;53.084;6.352;2022-10-31T14:32:36;11.05;;;2.88;;
66628;SDS011;53532;53.084;6.352;2022-10-31T14:35:02;9.52;;;2.83;;